MXY129 KORF-KTPA
Flight info
| Callsign | MXY129 |
|---|---|
| Flight time | 1h 54m |
| Altitude | 38000 |
| Route | NUTIY1 NUTIY COUPN BEETN JIMAR DEEEZ Q409 PUPYY BAAMF DADES2 |
| Aircraft | E190/M-SDE3GILORVW/S |
Departure
| Time | 2026-05-07 23:56 |
|---|---|
| Airport | Norfolk International Airport (KORF) |
Arrival
| Time | 2026-05-08 01:50 |
|---|---|
| Airport | Tampa International Airport (KTPA) |
| Time | Latitude | Longitude | Altitude | Speed | Heading |
|---|---|---|---|---|---|
| 2026-05-07 23:22 | 36.89599 | -76.20217 | 2 ft | 0 kts | 36° |
| 2026-05-07 23:47 | 36.89594 | -76.20221 | 2 ft | 2 kts | 36° |
| 2026-05-07 23:47 | 36.89579 | -76.20236 | 2 ft | 3 kts | 41° |
| 2026-05-07 23:47 | 36.89564 | -76.20253 | 2 ft | 3 kts | 57° |
| 2026-05-07 23:47 | 36.89558 | -76.20266 | 2 ft | 3 kts | 81° |
| 2026-05-07 23:48 | 36.89558 | -76.20282 | 2 ft | 1 kts | 125° |
| 2026-05-07 23:48 | 36.89559 | -76.20284 | 2 ft | 2 kts | 126° |
| 2026-05-07 23:51 | 36.89556 | -76.20279 | 2 ft | 0 kts | 126° |
| 2026-05-07 23:53 | 36.89519 | -76.20217 | 2 ft | 15 kts | 128° |
| 2026-05-07 23:53 | 36.89431 | -76.20229 | 3 ft | 15 kts | 216° |
| 2026-05-07 23:53 | 36.89344 | -76.20316 | 3 ft | 17 kts | 218° |
| 2026-05-07 23:53 | 36.89246 | -76.20409 | 5 ft | 17 kts | 216° |
| 2026-05-07 23:54 | 36.89143 | -76.20497 | 3 ft | 20 kts | 211° |
| 2026-05-07 23:54 | 36.89016 | -76.20594 | 3 ft | 22 kts | 211° |
| 2026-05-07 23:54 | 36.88889 | -76.20710 | 2 ft | 23 kts | 217° |
| 2026-05-07 23:54 | 36.88755 | -76.20838 | 2 ft | 25 kts | 218° |
| 2026-05-07 23:55 | 36.88655 | -76.20896 | 1 ft | 0 kts | 169° |
| 2026-05-07 23:55 | 36.88637 | -76.20881 | 1 ft | 11 kts | 140° |
| 2026-05-07 23:55 | 36.88635 | -76.20786 | 1 ft | 13 kts | 38° |
| 2026-05-07 23:56 | 36.88814 | -76.20603 | 3 ft | 81 kts | 36° |
| 2026-05-07 23:56 | 36.89502 | -76.19917 | 358 ft | 155 kts | 39° |
| 2026-05-07 23:56 | 36.90465 | -76.18940 | 1313 ft | 203 kts | 38° |
| 2026-05-07 23:56 | 36.91656 | -76.17817 | 2757 ft | 224 kts | 34° |
| 2026-05-07 23:57 | 36.93040 | -76.16507 | 3606 ft | 272 kts | 35° |
| 2026-05-07 23:57 | 36.94588 | -76.15003 | 3856 ft | 285 kts | 35° |
| 2026-05-07 23:57 | 36.96138 | -76.13532 | 3930 ft | 276 kts | 29° |
| 2026-05-07 23:57 | 36.97897 | -76.12800 | 3985 ft | 266 kts | 0° |
| 2026-05-07 23:58 | 36.99605 | -76.13430 | 4291 ft | 259 kts | 323° |
| 2026-05-07 23:58 | 37.00864 | -76.15052 | 5690 ft | 264 kts | 303° |
| 2026-05-07 23:58 | 37.01535 | -76.17168 | 7036 ft | 264 kts | 277° |
| 2026-05-07 23:58 | 37.01367 | -76.19439 | 8484 ft | 262 kts | 253° |
| 2026-05-07 23:59 | 37.00735 | -76.21577 | 9999 ft | 259 kts | 250° |
| 2026-05-07 23:59 | 37.00057 | -76.23747 | 10948 ft | 274 kts | 250° |
| 2026-05-07 23:59 | 36.99313 | -76.26013 | 11977 ft | 285 kts | 246° |
| 2026-05-07 23:59 | 36.98434 | -76.28275 | 13220 ft | 293 kts | 245° |
| 2026-05-08 00:00 | 36.97488 | -76.30585 | 14499 ft | 297 kts | 244° |
| 2026-05-08 00:00 | 36.96472 | -76.32904 | 15830 ft | 304 kts | 243° |
| 2026-05-08 00:00 | 36.95351 | -76.35181 | 17161 ft | 306 kts | 241° |
| 2026-05-08 00:00 | 36.94540 | -76.37677 | 18029 ft | 317 kts | 258° |
| 2026-05-08 00:01 | 36.94420 | -76.40397 | 19114 ft | 318 kts | 269° |
| 2026-05-08 00:01 | 36.94427 | -76.43155 | 20315 ft | 317 kts | 268° |
| 2026-05-08 00:01 | 36.94429 | -76.45906 | 21472 ft | 318 kts | 269° |
| 2026-05-08 00:01 | 36.94456 | -76.48683 | 22554 ft | 319 kts | 269° |
| 2026-05-08 00:02 | 36.94508 | -76.51465 | 23489 ft | 324 kts | 270° |
| 2026-05-08 00:02 | 36.94381 | -76.54266 | 24235 ft | 320 kts | 256° |
| 2026-05-08 00:02 | 36.93531 | -76.56826 | 25399 ft | 315 kts | 246° |
| 2026-05-08 00:02 | 36.92442 | -76.59201 | 26445 ft | 305 kts | 248° |
| 2026-05-08 00:03 | 36.91399 | -76.61544 | 27243 ft | 311 kts | 247° |
| 2026-05-08 00:03 | 36.90296 | -76.63881 | 27909 ft | 315 kts | 247° |
| 2026-05-08 00:03 | 36.89164 | -76.66251 | 28554 ft | 318 kts | 247° |
| 2026-05-08 00:03 | 36.88002 | -76.68633 | 28799 ft | 324 kts | 246° |
| 2026-05-08 00:04 | 36.86813 | -76.71022 | 29054 ft | 327 kts | 246° |
| 2026-05-08 00:04 | 36.85597 | -76.73454 | 29402 ft | 329 kts | 246° |
| 2026-05-08 00:04 | 36.84384 | -76.75867 | 29798 ft | 328 kts | 246° |
| 2026-05-08 00:04 | 36.83171 | -76.78274 | 30166 ft | 327 kts | 246° |
| 2026-05-08 00:05 | 36.81954 | -76.80679 | 30464 ft | 328 kts | 246° |
| 2026-05-08 00:05 | 36.80752 | -76.83046 | 30764 ft | 328 kts | 246° |
| 2026-05-08 00:05 | 36.79510 | -76.85483 | 31075 ft | 328 kts | 246° |
| 2026-05-08 00:05 | 36.78285 | -76.87882 | 31453 ft | 327 kts | 246° |
| 2026-05-08 00:06 | 36.77082 | -76.90233 | 31829 ft | 325 kts | 246° |
| 2026-05-08 00:06 | 36.75865 | -76.92606 | 32212 ft | 323 kts | 246° |
| 2026-05-08 00:06 | 36.74653 | -76.94962 | 32549 ft | 321 kts | 246° |
| 2026-05-08 00:06 | 36.73461 | -76.97276 | 32888 ft | 320 kts | 246° |
| 2026-05-08 00:07 | 36.72256 | -76.99608 | 33221 ft | 319 kts | 246° |
| 2026-05-08 00:07 | 36.71060 | -77.01923 | 33532 ft | 318 kts | 247° |
| 2026-05-08 00:07 | 36.69954 | -77.04295 | 33831 ft | 315 kts | 248° |
| 2026-05-08 00:07 | 36.68865 | -77.06657 | 34087 ft | 314 kts | 248° |
| 2026-05-08 00:08 | 36.67776 | -77.09020 | 34292 ft | 314 kts | 248° |
| 2026-05-08 00:08 | 36.66685 | -77.11376 | 34504 ft | 314 kts | 248° |
| 2026-05-08 00:08 | 36.65600 | -77.13715 | 34702 ft | 314 kts | 248° |
| 2026-05-08 00:08 | 36.64507 | -77.16070 | 34876 ft | 314 kts | 248° |
| 2026-05-08 00:09 | 36.63411 | -77.18425 | 35070 ft | 314 kts | 248° |
| 2026-05-08 00:09 | 36.62320 | -77.20768 | 35264 ft | 314 kts | 248° |
| 2026-05-08 00:09 | 36.61224 | -77.23122 | 35469 ft | 313 kts | 248° |
| 2026-05-08 00:09 | 36.60132 | -77.25458 | 35691 ft | 312 kts | 248° |
| 2026-05-08 00:10 | 36.59043 | -77.27790 | 35851 ft | 312 kts | 248° |
| 2026-05-08 00:10 | 36.57972 | -77.30080 | 36007 ft | 312 kts | 248° |
| 2026-05-08 00:10 | 36.56877 | -77.32420 | 36165 ft | 312 kts | 248° |
| 2026-05-08 00:10 | 36.55788 | -77.34745 | 36236 ft | 311 kts | 248° |
| 2026-05-08 00:11 | 36.54696 | -77.37076 | 36347 ft | 312 kts | 248° |
| 2026-05-08 00:11 | 36.53600 | -77.39413 | 36494 ft | 313 kts | 248° |
| 2026-05-08 00:11 | 36.52504 | -77.41749 | 36640 ft | 312 kts | 248° |
| 2026-05-08 00:11 | 36.51438 | -77.44017 | 36786 ft | 312 kts | 248° |
| 2026-05-08 00:12 | 36.50345 | -77.46344 | 36939 ft | 312 kts | 248° |
| 2026-05-08 00:12 | 36.49254 | -77.48664 | 37086 ft | 312 kts | 248° |
| 2026-05-08 00:12 | 36.48158 | -77.50994 | 37235 ft | 312 kts | 248° |
| 2026-05-08 00:12 | 36.47067 | -77.53320 | 37379 ft | 312 kts | 248° |
| 2026-05-08 00:13 | 36.45974 | -77.55647 | 37525 ft | 312 kts | 248° |
| 2026-05-08 00:13 | 36.44882 | -77.57971 | 37657 ft | 312 kts | 248° |
| 2026-05-08 00:13 | 36.43803 | -77.60266 | 37861 ft | 310 kts | 248° |
| 2026-05-08 00:13 | 36.42723 | -77.62555 | 38152 ft | 305 kts | 248° |
| 2026-05-08 00:14 | 36.40558 | -77.67162 | 38086 ft | 313 kts | 248° |
| 2026-05-08 00:14 | 36.38342 | -77.71866 | 38077 ft | 319 kts | 248° |
| 2026-05-08 00:15 | 36.36071 | -77.76677 | 37904 ft | 327 kts | 248° |
| 2026-05-08 00:15 | 36.33767 | -77.81547 | 37932 ft | 331 kts | 248° |
| 2026-05-08 00:16 | 36.31429 | -77.86453 | 37923 ft | 335 kts | 244° |
| 2026-05-08 00:16 | 36.29855 | -77.88669 | 37970 ft | 352 kts | 233° |
| 2026-05-08 00:16 | 36.27804 | -77.90471 | 37980 ft | 372 kts | 222° |
| 2026-05-08 00:17 | 36.25318 | -77.91691 | 37971 ft | 394 kts | 213° |
| 2026-05-08 00:17 | 36.22679 | -77.92656 | 37903 ft | 396 kts | 212° |
| 2026-05-08 00:17 | 36.17382 | -77.94520 | 37925 ft | 397 kts | 212° |
| 2026-05-08 00:18 | 36.12056 | -77.96354 | 37910 ft | 396 kts | 212° |
| 2026-05-08 00:18 | 36.06724 | -77.98161 | 37912 ft | 398 kts | 211° |
| 2026-05-08 00:19 | 36.01369 | -77.99961 | 37927 ft | 399 kts | 211° |
| 2026-05-08 00:19 | 35.96153 | -78.01707 | 37943 ft | 400 kts | 211° |
| 2026-05-08 00:20 | 35.90771 | -78.03503 | 37939 ft | 401 kts | 211° |
| 2026-05-08 00:20 | 35.85400 | -78.05293 | 37931 ft | 399 kts | 211° |
| 2026-05-08 00:21 | 35.80034 | -78.07075 | 37919 ft | 400 kts | 211° |
| 2026-05-08 00:21 | 35.74709 | -78.08842 | 37930 ft | 400 kts | 211° |
| 2026-05-08 00:22 | 35.69319 | -78.10627 | 37929 ft | 401 kts | 211° |
| 2026-05-08 00:22 | 35.63973 | -78.12398 | 38000 ft | 398 kts | 210° |
| 2026-05-08 00:23 | 35.58614 | -78.14167 | 37898 ft | 399 kts | 210° |
| 2026-05-08 00:23 | 35.53289 | -78.15923 | 37942 ft | 400 kts | 210° |
| 2026-05-08 00:24 | 35.47949 | -78.17681 | 37932 ft | 401 kts | 210° |
| 2026-05-08 00:24 | 35.42678 | -78.19414 | 37928 ft | 402 kts | 210° |
| 2026-05-08 00:25 | 35.37275 | -78.21188 | 37912 ft | 403 kts | 210° |
| 2026-05-08 00:25 | 35.31854 | -78.22964 | 37921 ft | 403 kts | 210° |
| 2026-05-08 00:26 | 35.29189 | -78.23933 | 37912 ft | 390 kts | 217° |
| 2026-05-08 00:26 | 35.26928 | -78.25529 | 37944 ft | 366 kts | 229° |
| 2026-05-08 00:26 | 35.22872 | -78.29270 | 37909 ft | 366 kts | 229° |
| 2026-05-08 00:27 | 35.18831 | -78.33022 | 37877 ft | 366 kts | 229° |
| 2026-05-08 00:27 | 35.14821 | -78.36755 | 37926 ft | 364 kts | 229° |
| 2026-05-08 00:28 | 35.10806 | -78.40500 | 37901 ft | 365 kts | 229° |
| 2026-05-08 00:28 | 35.06768 | -78.44266 | 37917 ft | 365 kts | 229° |
| 2026-05-08 00:29 | 35.02734 | -78.48028 | 37916 ft | 366 kts | 229° |
| 2026-05-08 00:29 | 34.98692 | -78.51792 | 37913 ft | 366 kts | 229° |
| 2026-05-08 00:30 | 34.94643 | -78.55555 | 37950 ft | 363 kts | 229° |
| 2026-05-08 00:30 | 34.90623 | -78.59292 | 37874 ft | 364 kts | 229° |
| 2026-05-08 00:31 | 34.86607 | -78.63019 | 37926 ft | 363 kts | 229° |
| 2026-05-08 00:31 | 34.82625 | -78.66713 | 37881 ft | 364 kts | 229° |
| 2026-05-08 00:32 | 34.78627 | -78.70420 | 37901 ft | 364 kts | 229° |
| 2026-05-08 00:32 | 34.74605 | -78.74138 | 37878 ft | 364 kts | 229° |
| 2026-05-08 00:33 | 34.70572 | -78.77856 | 37895 ft | 363 kts | 229° |
| 2026-05-08 00:33 | 34.66547 | -78.81571 | 37888 ft | 363 kts | 229° |
| 2026-05-08 00:34 | 34.62536 | -78.85267 | 37855 ft | 364 kts | 229° |
| 2026-05-08 00:34 | 34.58524 | -78.88959 | 37894 ft | 364 kts | 229° |
| 2026-05-08 00:35 | 34.54476 | -78.92681 | 37861 ft | 366 kts | 229° |
| 2026-05-08 00:35 | 34.50492 | -78.96339 | 37877 ft | 367 kts | 229° |
| 2026-05-08 00:36 | 34.46458 | -79.00104 | 37837 ft | 366 kts | 229° |
| 2026-05-08 00:36 | 34.42438 | -79.03868 | 37883 ft | 367 kts | 228° |
| 2026-05-08 00:37 | 34.38231 | -79.07464 | 37854 ft | 370 kts | 227° |
| 2026-05-08 00:38 | 34.31937 | -79.12842 | 37868 ft | 370 kts | 227° |
| 2026-05-08 00:38 | 34.27761 | -79.16415 | 37866 ft | 371 kts | 227° |
| 2026-05-08 00:39 | 34.23708 | -79.20100 | 37911 ft | 363 kts | 231° |
| 2026-05-08 00:39 | 34.19794 | -79.23995 | 37858 ft | 364 kts | 231° |
| 2026-05-08 00:40 | 34.15901 | -79.27840 | 37866 ft | 365 kts | 230° |
| 2026-05-08 00:40 | 34.11962 | -79.31717 | 37883 ft | 366 kts | 230° |
| 2026-05-08 00:41 | 34.08007 | -79.35599 | 37863 ft | 367 kts | 230° |
| 2026-05-08 00:41 | 34.04040 | -79.39484 | 37864 ft | 368 kts | 230° |
| 2026-05-08 00:42 | 34.00072 | -79.43364 | 37890 ft | 367 kts | 230° |
| 2026-05-08 00:42 | 33.96767 | -79.46592 | 37843 ft | 368 kts | 230° |
| 2026-05-08 00:43 | 33.92793 | -79.50469 | 37871 ft | 368 kts | 230° |
| 2026-05-08 00:43 | 33.88813 | -79.54348 | 37856 ft | 368 kts | 230° |
| 2026-05-08 00:44 | 33.84807 | -79.58202 | 37863 ft | 370 kts | 229° |
| 2026-05-08 00:44 | 33.80742 | -79.61995 | 37856 ft | 370 kts | 229° |
| 2026-05-08 00:45 | 33.76695 | -79.65775 | 37892 ft | 368 kts | 229° |
| 2026-05-08 00:45 | 33.72638 | -79.69562 | 37858 ft | 370 kts | 229° |
| 2026-05-08 00:46 | 33.68595 | -79.73334 | 37898 ft | 370 kts | 229° |
| 2026-05-08 00:46 | 33.64514 | -79.77136 | 37892 ft | 372 kts | 229° |
| 2026-05-08 00:47 | 33.60429 | -79.80937 | 37881 ft | 372 kts | 229° |
| 2026-05-08 00:47 | 33.56382 | -79.84699 | 37883 ft | 372 kts | 229° |
| 2026-05-08 00:48 | 33.52301 | -79.88487 | 37933 ft | 370 kts | 229° |
| 2026-05-08 00:48 | 33.48219 | -79.92274 | 37851 ft | 371 kts | 229° |
| 2026-05-08 00:49 | 33.44166 | -79.96027 | 37895 ft | 371 kts | 229° |
| 2026-05-08 00:49 | 33.40076 | -79.99811 | 37889 ft | 372 kts | 229° |
| 2026-05-08 00:50 | 33.35964 | -80.03611 | 37879 ft | 374 kts | 229° |
| 2026-05-08 00:50 | 33.31851 | -80.07405 | 37912 ft | 374 kts | 229° |
| 2026-05-08 00:51 | 33.27733 | -80.11200 | 37913 ft | 373 kts | 229° |
| 2026-05-08 00:51 | 33.23615 | -80.14990 | 37866 ft | 374 kts | 229° |
| 2026-05-08 00:52 | 33.19499 | -80.18774 | 37921 ft | 372 kts | 228° |
| 2026-05-08 00:52 | 33.15385 | -80.22553 | 37888 ft | 374 kts | 228° |
| 2026-05-08 00:53 | 33.11259 | -80.26338 | 37906 ft | 375 kts | 228° |
| 2026-05-08 00:53 | 33.07127 | -80.30123 | 37902 ft | 375 kts | 228° |
| 2026-05-08 00:54 | 33.02982 | -80.33916 | 37897 ft | 375 kts | 228° |
| 2026-05-08 00:54 | 32.98837 | -80.37704 | 37899 ft | 375 kts | 228° |
| 2026-05-08 00:55 | 32.94694 | -80.41485 | 37899 ft | 375 kts | 228° |
| 2026-05-08 00:55 | 32.90576 | -80.45241 | 37902 ft | 375 kts | 228° |
| 2026-05-08 00:56 | 32.86428 | -80.49022 | 37901 ft | 375 kts | 228° |
| 2026-05-08 00:56 | 32.82285 | -80.52792 | 37905 ft | 376 kts | 228° |
| 2026-05-08 00:57 | 32.78142 | -80.56554 | 37938 ft | 373 kts | 228° |
| 2026-05-08 00:57 | 32.74013 | -80.60306 | 37895 ft | 373 kts | 228° |
| 2026-05-08 00:58 | 32.69871 | -80.64069 | 37917 ft | 377 kts | 229° |
| 2026-05-08 00:58 | 32.65712 | -80.67931 | 37929 ft | 383 kts | 228° |
| 2026-05-08 00:59 | 32.61484 | -80.71845 | 37919 ft | 388 kts | 228° |
| 2026-05-08 00:59 | 32.57217 | -80.75788 | 37912 ft | 390 kts | 228° |
| 2026-05-08 01:00 | 32.52948 | -80.79730 | 37918 ft | 391 kts | 228° |
| 2026-05-08 01:00 | 32.48660 | -80.83685 | 37926 ft | 391 kts | 227° |
| 2026-05-08 01:01 | 32.44388 | -80.87618 | 37903 ft | 392 kts | 228° |
| 2026-05-08 01:01 | 32.40092 | -80.91570 | 37917 ft | 392 kts | 227° |
| 2026-05-08 01:02 | 32.35788 | -80.95524 | 37913 ft | 392 kts | 227° |
| 2026-05-08 01:02 | 32.31478 | -80.99478 | 37926 ft | 392 kts | 227° |
| 2026-05-08 01:03 | 32.26991 | -81.03210 | 37949 ft | 401 kts | 220° |
| 2026-05-08 01:03 | 32.22139 | -81.06491 | 37955 ft | 402 kts | 220° |
| 2026-05-08 01:04 | 32.17273 | -81.09767 | 37953 ft | 403 kts | 220° |
| 2026-05-08 01:04 | 32.12417 | -81.13025 | 37934 ft | 401 kts | 220° |
| 2026-05-08 01:05 | 32.07601 | -81.16250 | 37948 ft | 397 kts | 220° |
| 2026-05-08 01:05 | 32.02787 | -81.19475 | 37913 ft | 397 kts | 220° |
| 2026-05-08 01:06 | 31.97971 | -81.22694 | 37883 ft | 399 kts | 220° |
| 2026-05-08 01:06 | 31.95725 | -81.24518 | 37931 ft | 385 kts | 230° |
| 2026-05-08 01:06 | 31.93720 | -81.26601 | 37931 ft | 385 kts | 230° |
| 2026-05-08 01:07 | 31.89717 | -81.30798 | 37902 ft | 384 kts | 230° |
| 2026-05-08 01:07 | 31.85726 | -81.34989 | 37920 ft | 386 kts | 230° |
| 2026-05-08 01:08 | 31.81718 | -81.39197 | 37925 ft | 386 kts | 230° |
| 2026-05-08 01:08 | 31.77733 | -81.43381 | 37910 ft | 387 kts | 230° |
| 2026-05-08 01:09 | 31.73728 | -81.47581 | 37923 ft | 388 kts | 230° |
| 2026-05-08 01:09 | 31.69688 | -81.51816 | 37930 ft | 390 kts | 230° |
| 2026-05-08 01:10 | 31.65656 | -81.56038 | 37935 ft | 391 kts | 230° |
| 2026-05-08 01:10 | 31.61585 | -81.60293 | 37964 ft | 393 kts | 230° |
| 2026-05-08 01:11 | 31.57492 | -81.64567 | 37969 ft | 394 kts | 230° |
| 2026-05-08 01:11 | 31.53394 | -81.68841 | 37979 ft | 395 kts | 230° |
| 2026-05-08 01:12 | 31.49293 | -81.73114 | 37993 ft | 395 kts | 230° |
| 2026-05-08 01:12 | 31.45168 | -81.77406 | 37958 ft | 397 kts | 230° |
| 2026-05-08 01:13 | 31.40991 | -81.81646 | 37978 ft | 404 kts | 223° |
| 2026-05-08 01:13 | 31.36139 | -81.85041 | 37977 ft | 410 kts | 220° |
| 2026-05-08 01:14 | 31.31170 | -81.88443 | 37974 ft | 412 kts | 220° |
| 2026-05-08 01:14 | 31.26217 | -81.91822 | 37914 ft | 413 kts | 219° |
| 2026-05-08 01:15 | 31.21330 | -81.95151 | 37934 ft | 413 kts | 219° |
| 2026-05-08 01:15 | 31.16363 | -81.98529 | 37978 ft | 413 kts | 219° |
| 2026-05-08 01:16 | 31.11389 | -82.01912 | 37942 ft | 414 kts | 219° |
| 2026-05-08 01:16 | 31.06414 | -82.05284 | 37942 ft | 415 kts | 219° |
| 2026-05-08 01:17 | 31.01516 | -82.08603 | 37971 ft | 416 kts | 219° |
| 2026-05-08 01:17 | 30.96517 | -82.11982 | 37922 ft | 413 kts | 219° |
| 2026-05-08 01:18 | 30.91568 | -82.15325 | 37949 ft | 413 kts | 219° |
| 2026-05-08 01:18 | 30.86592 | -82.18684 | 37974 ft | 413 kts | 219° |
| 2026-05-08 01:19 | 30.81640 | -82.22021 | 37951 ft | 414 kts | 219° |
| 2026-05-08 01:19 | 30.76647 | -82.25381 | 37949 ft | 415 kts | 219° |
| 2026-05-08 01:20 | 30.71659 | -82.28735 | 37967 ft | 415 kts | 219° |
| 2026-05-08 01:20 | 30.66436 | -82.31721 | 37972 ft | 435 kts | 202° |
| 2026-05-08 01:20 | 30.63398 | -82.32256 | 38004 ft | 446 kts | 196° |
| 2026-05-08 01:21 | 30.60307 | -82.32634 | 37979 ft | 447 kts | 196° |
| 2026-05-08 01:21 | 30.54121 | -82.33401 | 37954 ft | 448 kts | 196° |
| 2026-05-08 01:22 | 30.47930 | -82.34166 | 37961 ft | 448 kts | 196° |
| 2026-05-08 01:22 | 30.41716 | -82.34932 | 37966 ft | 449 kts | 196° |
| 2026-05-08 01:23 | 30.35509 | -82.35698 | 37967 ft | 449 kts | 196° |
| 2026-05-08 01:23 | 30.29299 | -82.36459 | 37969 ft | 449 kts | 196° |
| 2026-05-08 01:24 | 30.23090 | -82.37219 | 37976 ft | 449 kts | 196° |
| 2026-05-08 01:24 | 30.16910 | -82.37899 | 37949 ft | 455 kts | 189° |
| 2026-05-08 01:25 | 30.10557 | -82.37600 | 37978 ft | 459 kts | 187° |
| 2026-05-08 01:25 | 30.04154 | -82.37239 | 37588 ft | 464 kts | 187° |
| 2026-05-08 01:25 | 30.00946 | -82.37055 | 37392 ft | 461 kts | 187° |
| 2026-05-08 01:26 | 29.97715 | -82.36878 | 36662 ft | 468 kts | 187° |
| 2026-05-08 01:26 | 29.94466 | -82.36694 | 36116 ft | 466 kts | 187° |
| 2026-05-08 01:26 | 29.91232 | -82.36515 | 35463 ft | 466 kts | 187° |
| 2026-05-08 01:26 | 29.88002 | -82.36333 | 34812 ft | 461 kts | 186° |
| 2026-05-08 01:27 | 29.84829 | -82.36153 | 34246 ft | 452 kts | 186° |
| 2026-05-08 01:27 | 29.81714 | -82.35980 | 33589 ft | 446 kts | 186° |
| 2026-05-08 01:27 | 29.78635 | -82.35807 | 33068 ft | 441 kts | 186° |
| 2026-05-08 01:27 | 29.75573 | -82.35639 | 32462 ft | 441 kts | 186° |
| 2026-05-08 01:28 | 29.72504 | -82.35468 | 31886 ft | 442 kts | 186° |
| 2026-05-08 01:28 | 29.69422 | -82.35299 | 31293 ft | 444 kts | 186° |
| 2026-05-08 01:28 | 29.66328 | -82.35128 | 30701 ft | 447 kts | 186° |
| 2026-05-08 01:28 | 29.63216 | -82.34956 | 30111 ft | 448 kts | 185° |
| 2026-05-08 01:29 | 29.60096 | -82.34784 | 29456 ft | 449 kts | 185° |
| 2026-05-08 01:29 | 29.56987 | -82.34611 | 28916 ft | 449 kts | 185° |
| 2026-05-08 01:29 | 29.53859 | -82.34440 | 28310 ft | 448 kts | 185° |
| 2026-05-08 01:29 | 29.50758 | -82.34266 | 27685 ft | 445 kts | 185° |
| 2026-05-08 01:30 | 29.47680 | -82.34096 | 27117 ft | 441 kts | 185° |
| 2026-05-08 01:30 | 29.44633 | -82.33927 | 26536 ft | 437 kts | 185° |
| 2026-05-08 01:30 | 29.41644 | -82.33762 | 25968 ft | 434 kts | 185° |
| 2026-05-08 01:30 | 29.38641 | -82.33557 | 25375 ft | 433 kts | 182° |
| 2026-05-08 01:31 | 29.35652 | -82.33164 | 24814 ft | 430 kts | 181° |
| 2026-05-08 01:31 | 29.32689 | -82.32798 | 24243 ft | 427 kts | 181° |
| 2026-05-08 01:31 | 29.29748 | -82.32437 | 23674 ft | 424 kts | 181° |
| 2026-05-08 01:31 | 29.26830 | -82.32083 | 23078 ft | 420 kts | 181° |
| 2026-05-08 01:32 | 29.23944 | -82.31733 | 22564 ft | 416 kts | 181° |
| 2026-05-08 01:32 | 29.21066 | -82.31388 | 22005 ft | 413 kts | 181° |
| 2026-05-08 01:32 | 29.19177 | -82.31161 | 21645 ft | 412 kts | 181° |
| 2026-05-08 01:32 | 29.16337 | -82.30822 | 21105 ft | 409 kts | 181° |
| 2026-05-08 01:33 | 29.13517 | -82.30485 | 20558 ft | 406 kts | 181° |
| 2026-05-08 01:33 | 29.10713 | -82.30150 | 20019 ft | 403 kts | 181° |
| 2026-05-08 01:33 | 29.07954 | -82.29822 | 19498 ft | 401 kts | 181° |
| 2026-05-08 01:33 | 29.05190 | -82.29493 | 18965 ft | 398 kts | 181° |
| 2026-05-08 01:34 | 29.02445 | -82.29168 | 18418 ft | 396 kts | 180° |
| 2026-05-08 01:34 | 28.99717 | -82.28845 | 17893 ft | 392 kts | 180° |
| 2026-05-08 01:34 | 28.97019 | -82.28523 | 17339 ft | 389 kts | 180° |
| 2026-05-08 01:34 | 28.94337 | -82.28206 | 16843 ft | 384 kts | 180° |
| 2026-05-08 01:35 | 28.91691 | -82.27891 | 16327 ft | 380 kts | 180° |
| 2026-05-08 01:35 | 28.89077 | -82.27582 | 15825 ft | 376 kts | 179° |
| 2026-05-08 01:35 | 28.86485 | -82.27276 | 15341 ft | 372 kts | 179° |
| 2026-05-08 01:35 | 28.83924 | -82.26973 | 14854 ft | 369 kts | 179° |
| 2026-05-08 01:36 | 28.81394 | -82.26672 | 14357 ft | 361 kts | 179° |
| 2026-05-08 01:36 | 28.78923 | -82.26380 | 13898 ft | 354 kts | 179° |
| 2026-05-08 01:36 | 28.76504 | -82.26094 | 13408 ft | 346 kts | 179° |
| 2026-05-08 01:36 | 28.74148 | -82.25815 | 13141 ft | 333 kts | 179° |
| 2026-05-08 01:37 | 28.71897 | -82.25664 | 13015 ft | 314 kts | 185° |
| 2026-05-08 01:37 | 28.69756 | -82.25669 | 12968 ft | 304 kts | 184° |
| 2026-05-08 01:37 | 28.67649 | -82.25656 | 12953 ft | 303 kts | 184° |
| 2026-05-08 01:37 | 28.65539 | -82.25639 | 12943 ft | 305 kts | 184° |
| 2026-05-08 01:38 | 28.63401 | -82.25616 | 12808 ft | 306 kts | 184° |
| 2026-05-08 01:38 | 28.61275 | -82.25580 | 12759 ft | 306 kts | 184° |
| 2026-05-08 01:38 | 28.59146 | -82.25545 | 12651 ft | 307 kts | 184° |
| 2026-05-08 01:38 | 28.57006 | -82.25506 | 12495 ft | 307 kts | 183° |
| 2026-05-08 01:39 | 28.54870 | -82.25469 | 12340 ft | 306 kts | 183° |
| 2026-05-08 01:39 | 28.52737 | -82.25429 | 12083 ft | 308 kts | 183° |
| 2026-05-08 01:39 | 28.50597 | -82.25398 | 11774 ft | 307 kts | 183° |
| 2026-05-08 01:39 | 28.48463 | -82.25373 | 11430 ft | 306 kts | 183° |
| 2026-05-08 01:40 | 28.46355 | -82.25347 | 11002 ft | 307 kts | 183° |
| 2026-05-08 01:40 | 28.44221 | -82.25319 | 10571 ft | 306 kts | 183° |
| 2026-05-08 01:40 | 28.42098 | -82.25292 | 10147 ft | 305 kts | 182° |
| 2026-05-08 01:40 | 28.39991 | -82.25264 | 9731 ft | 302 kts | 182° |
| 2026-05-08 01:41 | 28.37904 | -82.25241 | 9361 ft | 296 kts | 184° |
| 2026-05-08 01:41 | 28.35937 | -82.25706 | 8963 ft | 286 kts | 209° |
| 2026-05-08 01:41 | 28.34361 | -82.27019 | 8641 ft | 278 kts | 223° |
| 2026-05-08 01:41 | 28.32894 | -82.28449 | 8237 ft | 279 kts | 222° |
| 2026-05-08 01:42 | 28.31399 | -82.29866 | 7864 ft | 279 kts | 221° |
| 2026-05-08 01:42 | 28.30112 | -82.31476 | 7476 ft | 276 kts | 244° |
| 2026-05-08 01:42 | 28.29615 | -82.33555 | 7170 ft | 273 kts | 263° |
| 2026-05-08 01:42 | 28.29421 | -82.35695 | 6793 ft | 275 kts | 264° |
| 2026-05-08 01:43 | 28.29196 | -82.37849 | 6395 ft | 275 kts | 263° |
| 2026-05-08 01:43 | 28.28965 | -82.39972 | 6172 ft | 266 kts | 263° |
| 2026-05-08 01:43 | 28.28839 | -82.42021 | 6076 ft | 254 kts | 273° |
| 2026-05-08 01:43 | 28.28933 | -82.44000 | 5998 ft | 250 kts | 271° |
| 2026-05-08 01:44 | 28.28976 | -82.45954 | 5986 ft | 248 kts | 271° |
| 2026-05-08 01:44 | 28.28765 | -82.47904 | 5752 ft | 254 kts | 246° |
| 2026-05-08 01:44 | 28.27667 | -82.49403 | 5569 ft | 253 kts | 217° |
| 2026-05-08 01:44 | 28.26124 | -82.50363 | 5405 ft | 253 kts | 206° |
| 2026-05-08 01:45 | 28.24594 | -82.51319 | 5232 ft | 251 kts | 215° |
| 2026-05-08 01:45 | 28.23064 | -82.52189 | 5003 ft | 247 kts | 190° |
| 2026-05-08 01:45 | 28.21397 | -82.52127 | 4911 ft | 232 kts | 174° |
| 2026-05-08 01:45 | 28.19844 | -82.52037 | 4774 ft | 217 kts | 185° |
| 2026-05-08 01:46 | 28.18380 | -82.52176 | 4635 ft | 203 kts | 186° |
| 2026-05-08 01:46 | 28.16995 | -82.52205 | 4435 ft | 199 kts | 182° |
| 2026-05-08 01:46 | 28.15615 | -82.52227 | 4140 ft | 199 kts | 184° |
| 2026-05-08 01:46 | 28.14230 | -82.52296 | 3797 ft | 199 kts | 184° |
| 2026-05-08 01:47 | 28.12842 | -82.52343 | 3410 ft | 199 kts | 183° |
| 2026-05-08 01:47 | 28.11458 | -82.52390 | 3021 ft | 198 kts | 184° |
| 2026-05-08 01:47 | 28.10146 | -82.52430 | 3033 ft | 187 kts | 184° |
| 2026-05-08 01:48 | 28.07405 | -82.52526 | 2219 ft | 201 kts | 184° |
| 2026-05-08 01:48 | 28.05976 | -82.52569 | 1738 ft | 202 kts | 184° |
| 2026-05-08 01:48 | 28.04599 | -82.52608 | 1327 ft | 198 kts | 183° |
| 2026-05-08 01:48 | 28.03272 | -82.52653 | 965 ft | 187 kts | 185° |
| 2026-05-08 01:49 | 28.02026 | -82.52702 | 734 ft | 171 kts | 183° |
| 2026-05-08 01:49 | 28.00888 | -82.52724 | 512 ft | 159 kts | 184° |
| 2026-05-08 01:49 | 27.99819 | -82.52775 | 295 ft | 149 kts | 186° |
| 2026-05-08 01:49 | 27.98819 | -82.52819 | 104 ft | 141 kts | 184° |
| 2026-05-08 01:50 | 27.97884 | -82.52852 | 37 ft | 119 kts | 181° |
| 2026-05-08 01:50 | 27.97220 | -82.52875 | 37 ft | 71 kts | 182° |
| 2026-05-08 01:50 | 27.96880 | -82.52907 | 36 ft | 19 kts | 215° |
| 2026-05-08 01:50 | 27.96889 | -82.52993 | 38 ft | 10 kts | 328° |
| 2026-05-08 01:51 | 27.96949 | -82.53004 | 39 ft | 9 kts | 357° |
| 2026-05-08 01:51 | 27.97042 | -82.53004 | 34 ft | 20 kts | 1° |
| 2026-05-08 01:51 | 27.97204 | -82.52998 | 40 ft | 24 kts | 1° |
| 2026-05-08 01:51 | 27.97369 | -82.52992 | 40 ft | 25 kts | 1° |
| 2026-05-08 01:52 | 27.97542 | -82.52986 | 41 ft | 25 kts | 2° |
| 2026-05-08 01:52 | 27.97725 | -82.52982 | 41 ft | 26 kts | 1° |
| 2026-05-08 01:52 | 27.97912 | -82.52975 | 40 ft | 27 kts | 2° |
| 2026-05-08 01:52 | 27.98103 | -82.52968 | 40 ft | 28 kts | 1° |
| 2026-05-08 01:53 | 27.98286 | -82.52967 | 40 ft | 20 kts | 345° |
| 2026-05-08 01:53 | 27.98389 | -82.53068 | 41 ft | 20 kts | 316° |
| 2026-05-08 01:53 | 27.98485 | -82.53175 | 41 ft | 16 kts | 297° |
| 2026-05-08 01:53 | 27.98497 | -82.53297 | 43 ft | 16 kts | 271° |
| 2026-05-08 01:54 | 27.98427 | -82.53377 | 42 ft | 13 kts | 185° |
| 2026-05-08 01:54 | 27.98350 | -82.53359 | 42 ft | 10 kts | 120° |
| 2026-05-08 01:54 | 27.98341 | -82.53307 | 42 ft | 1 kts | 91° |
| 2026-05-08 01:54 | 27.98341 | -82.53305 | 42 ft | 0 kts | 92° |